createdAt,value
2019-04-14T00:00:38.316Z,8.47
2019-04-14T00:02:53.294Z,7.47
2019-04-14T00:04:59.419Z,7.30
2019-04-14T00:07:03.722Z,7.73
2019-04-14T00:09:11.782Z,7.40
2019-04-14T00:11:16.900Z,8.97
2019-04-14T00:13:21.764Z,8.20
2019-04-14T00:15:33.045Z,8.23
2019-04-14T00:17:31.327Z,8.10
2019-04-14T00:19:35.204Z,9.07
2019-04-14T00:21:39.128Z,8.00
2019-04-14T00:23:43.473Z,8.20
2019-04-14T00:25:47.722Z,8.13
2019-04-14T00:27:52.183Z,7.97
2019-04-14T00:29:56.817Z,8.10
2019-04-14T00:32:00.945Z,9.07
2019-04-14T00:34:07.262Z,8.63
2019-04-14T00:36:19.706Z,8.80
2019-04-14T00:38:32.121Z,8.97
2019-04-14T00:40:43.942Z,9.77
2019-04-14T00:42:55.948Z,8.00
2019-04-14T00:45:02.740Z,8.23
2019-04-14T00:47:09.332Z,9.17
2019-04-14T00:49:13.606Z,8.43
2019-04-14T00:51:17.795Z,9.13
2019-04-14T00:53:22.853Z,9.23
2019-04-14T00:55:27.127Z,9.53
2019-04-14T00:57:33.322Z,9.10
2019-04-14T00:59:37.614Z,9.57
2019-04-14T01:01:41.675Z,9.40
2019-04-14T01:03:45.882Z,9.37
2019-04-14T01:05:50.353Z,8.80
2019-04-14T01:07:54.478Z,10.07
2019-04-14T01:09:59.598Z,9.30
2019-04-14T01:12:03.946Z,7.03
2019-04-14T01:14:08.038Z,9.43
2019-04-14T01:16:16.733Z,9.17
2019-04-14T01:18:17.490Z,7.70
2019-04-14T01:20:21.424Z,9.47
2019-04-14T01:22:25.308Z,9.00
2019-04-14T01:24:29.302Z,9.67
2019-04-14T01:26:33.250Z,9.43
2019-04-14T01:28:37.564Z,9.03
2019-04-14T01:30:41.672Z,9.50
2019-04-14T01:32:45.734Z,9.97
2019-04-14T01:34:52.295Z,9.73
2019-04-14T01:36:56.130Z,9.83
2019-04-14T01:39:00.367Z,9.53
2019-04-14T01:41:04.395Z,9.40
2019-04-14T01:43:08.274Z,8.60
2019-04-14T01:45:16.462Z,10.87
2019-04-14T01:47:20.567Z,10.37
2019-04-14T01:49:24.726Z,9.40
2019-04-14T01:51:33.318Z,9.50
2019-04-14T01:53:40.000Z,8.90
2019-04-14T01:55:46.248Z,10.07
2019-04-14T01:58:08.158Z,10.00
2019-04-14T02:00:20.801Z,9.63
2019-04-14T02:02:27.032Z,10.33
2019-04-14T02:04:31.295Z,9.20
2019-04-14T02:06:35.615Z,9.20
2019-04-14T02:08:39.644Z,9.83
2019-04-14T02:10:43.624Z,9.77
2019-04-14T02:12:47.555Z,10.80
2019-04-14T02:14:51.611Z,10.20
2019-04-14T02:16:59.086Z,10.23
2019-04-14T02:19:02.319Z,11.37
2019-04-14T02:21:06.507Z,9.20
2019-04-14T02:23:10.467Z,9.57
2019-04-14T02:25:14.459Z,10.23
2019-04-14T02:27:18.859Z,10.30
2019-04-14T02:29:23.339Z,11.23
2019-04-14T02:31:53.000Z,9.93
2019-04-14T02:34:17.429Z,9.40
2019-04-14T02:36:14.786Z,9.47
2019-04-14T02:38:29.241Z,9.40
2019-04-14T02:40:18.138Z,10.03
2019-04-14T02:44:33.913Z,10.63
2019-04-14T02:46:39.865Z,10.90
2019-04-14T02:48:44.887Z,10.63
2019-04-14T02:50:43.697Z,10.53
2019-04-14T02:57:02.032Z,10.37
2019-04-14T02:59:05.964Z,9.73
2019-04-14T03:03:25.089Z,10.23
2019-04-14T03:05:26.105Z,10.23
2019-04-14T03:07:37.802Z,9.33
2019-04-14T03:11:46.257Z,9.93
2019-04-14T03:13:52.131Z,8.83
2019-04-14T03:15:55.135Z,10.10
2019-04-14T03:20:20.591Z,10.13
2019-04-14T03:22:37.740Z,9.90
2019-04-14T03:24:33.889Z,11.47
2019-04-14T03:27:00.284Z,9.73
2019-04-14T03:29:05.380Z,10.93
2019-04-14T03:31:39.117Z,10.03
2019-04-14T03:33:48.333Z,10.37
2019-04-14T03:35:50.972Z,10.60
2019-04-14T03:37:45.118Z,9.77
2019-04-14T03:43:43.072Z,9.33
2019-04-14T03:48:33.807Z,10.13
2019-04-14T03:50:05.911Z,10.17
2019-04-14T03:52:15.284Z,10.43
2019-04-14T03:54:07.946Z,10.27
2019-04-14T03:56:05.763Z,10.20
2019-04-14T03:58:09.149Z,10.20
2019-04-14T04:00:13.904Z,10.60
2019-04-14T04:02:18.287Z,10.60
2019-04-14T04:04:22.806Z,9.40
2019-04-14T04:06:27.068Z,9.20
2019-04-14T04:08:31.290Z,10.37
2019-04-14T04:10:42.787Z,11.07
2019-04-14T04:12:46.683Z,10.30
2019-04-14T04:14:51.235Z,9.33
2019-04-14T04:16:57.304Z,10.60
2019-04-14T04:19:08.547Z,11.03
2019-04-14T04:21:22.809Z,11.57
2019-04-14T04:23:31.365Z,10.37
2019-04-14T04:25:42.913Z,9.97
2019-04-14T04:28:06.039Z,10.13
2019-04-14T04:30:14.979Z,11.27
2019-04-14T04:32:20.766Z,10.80
2019-04-14T04:34:27.270Z,9.97
2019-04-14T04:36:42.313Z,10.37
2019-04-14T04:38:56.014Z,11.70
2019-04-14T04:40:59.907Z,10.03
2019-04-14T04:43:03.916Z,10.40
2019-04-14T04:45:08.352Z,10.53
2019-04-14T04:47:12.439Z,11.03
2019-04-14T04:49:21.130Z,10.37
2019-04-14T04:51:22.489Z,10.83
2019-04-14T04:53:26.721Z,10.07
2019-04-14T04:55:30.770Z,9.57
2019-04-14T04:57:35.781Z,10.57
2019-04-14T04:59:40.723Z,10.30
2019-04-14T05:01:45.237Z,10.67
2019-04-14T05:03:49.267Z,10.50
2019-04-14T05:06:11.298Z,10.33
2019-04-14T05:08:15.244Z,10.30
2019-04-14T05:10:21.661Z,10.37
2019-04-14T05:12:30.613Z,11.13
2019-04-14T05:14:52.789Z,9.70
2019-04-14T05:16:57.158Z,10.43
2019-04-14T05:19:12.201Z,8.90
2019-04-14T05:21:06.752Z,9.00
2019-04-14T05:23:10.659Z,11.30
2019-04-14T05:25:14.628Z,10.13
2019-04-14T05:27:18.924Z,10.13
2019-04-14T05:29:23.173Z,9.13
2019-04-14T05:31:29.023Z,10.73
2019-04-14T05:33:33.663Z,9.30
2019-04-14T05:35:38.015Z,9.53
2019-04-14T05:37:42.286Z,10.40
2019-04-14T05:39:46.207Z,9.27
2019-04-14T05:42:00.327Z,9.43
2019-04-14T05:43:58.901Z,10.27
2019-04-14T05:46:01.353Z,9.83
2019-04-14T05:48:05.377Z,8.30
2019-04-14T05:50:10.164Z,9.90
2019-04-14T05:52:14.186Z,10.00
2019-04-14T05:54:18.506Z,10.23
2019-04-14T05:56:23.157Z,9.90
2019-04-14T05:58:27.528Z,10.80
2019-04-14T06:00:32.082Z,9.40
2019-04-14T06:02:36.125Z,9.93
2019-04-14T06:04:40.001Z,8.20
2019-04-14T06:06:43.922Z,10.43
2019-04-14T06:08:47.863Z,7.40
2019-04-14T06:10:51.751Z,7.27
2019-04-14T06:12:55.882Z,8.30
2019-04-14T06:14:59.784Z,7.70
2019-04-14T06:17:03.708Z,9.67
2019-04-14T06:19:07.621Z,8.23
2019-04-14T06:21:11.495Z,9.03
2019-04-14T06:23:15.445Z,9.87
2019-04-14T06:25:19.350Z,7.17
2019-04-14T06:27:23.323Z,9.47
2019-04-14T06:29:27.217Z,6.77
2019-04-14T06:31:38.703Z,9.20
2019-04-14T06:33:49.846Z,9.37
2019-04-14T06:36:10.108Z,8.90
2019-04-14T06:38:15.566Z,8.63
2019-04-14T06:40:20.789Z,8.23
2019-04-14T06:42:24.677Z,8.40
2019-04-14T06:44:28.568Z,8.37
2019-04-14T06:46:32.484Z,9.00
2019-04-14T06:48:36.357Z,9.27
2019-04-14T06:50:40.248Z,9.37
2019-04-14T06:52:44.172Z,9.23
2019-04-14T06:54:48.104Z,9.80
2019-04-14T06:56:52.007Z,8.67
2019-04-14T06:58:55.889Z,9.30
2019-04-14T07:00:59.835Z,9.70
2019-04-14T07:03:03.714Z,8.40
2019-04-14T07:05:07.613Z,6.20
2019-04-14T07:07:11.533Z,8.50
2019-04-14T07:09:15.431Z,8.90
2019-04-14T07:11:19.452Z,6.77
2019-04-14T07:13:23.362Z,9.57
2019-04-14T07:15:27.268Z,6.93
2019-04-14T07:17:31.207Z,8.80
2019-04-14T07:19:35.101Z,7.83
2019-04-14T07:21:38.998Z,8.50
2019-04-14T07:23:42.960Z,7.20
2019-04-14T07:25:46.839Z,6.73
2019-04-14T07:27:50.739Z,9.23
2019-04-14T07:30:08.532Z,9.27
2019-04-14T07:32:30.485Z,7.17
2019-04-14T07:34:42.155Z,6.57
2019-04-14T07:37:02.721Z,7.87
2019-04-14T07:39:24.992Z,9.37
2019-04-14T07:41:36.183Z,5.40
2019-04-14T07:43:44.412Z,8.40
2019-04-14T07:45:50.038Z,9.90
2019-04-14T07:48:12.163Z,8.97
2019-04-14T07:50:20.825Z,7.00
2019-04-14T07:52:27.073Z,7.07
2019-04-14T07:54:48.641Z,8.40
2019-04-14T07:56:58.717Z,8.97
2019-04-14T07:59:05.886Z,6.07
2019-04-14T08:01:11.496Z,8.80
2019-04-14T08:03:16.965Z,7.20
2019-04-14T08:05:31.388Z,6.60
2019-04-14T08:07:35.252Z,6.50
2019-04-14T08:09:39.128Z,5.40
2019-04-14T08:11:43.059Z,6.83
2019-04-14T08:13:46.943Z,5.77
2019-04-14T08:15:50.878Z,7.07
2019-04-14T08:17:54.824Z,7.50
2019-04-14T08:19:58.705Z,5.13
2019-04-14T08:22:02.659Z,6.93
2019-04-14T08:24:06.541Z,6.17
2019-04-14T08:26:10.438Z,5.77
2019-04-14T08:28:14.355Z,5.07
2019-04-14T08:30:18.347Z,5.40
2019-04-14T08:32:22.285Z,8.13
2019-04-14T08:34:27.330Z,8.93
2019-04-14T08:36:33.313Z,5.80
2019-04-14T08:38:36.893Z,5.37
2019-04-14T08:40:41.216Z,5.50
2019-04-14T08:42:46.710Z,6.37
2019-04-14T08:44:52.385Z,8.17
2019-04-14T08:47:16.273Z,5.33
2019-04-14T08:49:33.813Z,6.03
2019-04-14T08:51:51.347Z,5.37
2019-04-14T08:54:05.823Z,4.90
2019-04-14T08:56:11.292Z,5.97
2019-04-14T08:58:35.287Z,8.03
2019-04-14T09:00:40.721Z,5.73
2019-04-14T09:02:52.396Z,5.53
2019-04-14T09:05:06.917Z,4.50
2019-04-14T09:07:12.389Z,8.63
2019-04-14T09:09:17.898Z,8.27
2019-04-14T09:11:30.110Z,6.37
2019-04-14T09:13:34.069Z,6.20
2019-04-14T09:15:38.019Z,6.00
2019-04-14T09:17:41.884Z,5.63
2019-04-14T09:19:45.815Z,5.33
2019-04-14T09:21:50.818Z,6.17
2019-04-14T09:23:56.783Z,6.07
2019-04-14T09:26:00.291Z,7.00
2019-04-14T09:28:04.269Z,5.53
2019-04-14T09:30:09.181Z,7.13
2019-04-14T09:32:13.298Z,6.43
2019-04-14T09:34:17.171Z,6.43
2019-04-14T09:36:21.102Z,8.57
2019-04-14T09:38:24.991Z,7.50
2019-04-14T09:40:28.901Z,6.93
2019-04-14T09:42:32.832Z,8.23
2019-04-14T09:44:36.705Z,8.50
2019-04-14T09:46:40.632Z,9.20
2019-04-14T09:48:44.516Z,5.90
2019-04-14T09:50:48.396Z,7.57
2019-04-14T09:52:52.312Z,7.27
2019-04-14T09:54:56.202Z,8.80
2019-04-14T09:57:00.182Z,7.77
2019-04-14T09:59:04.136Z,7.93
2019-04-14T10:01:09.151Z,8.47
2019-04-14T10:03:13.272Z,8.57
2019-04-14T10:05:17.158Z,7.63
2019-04-14T10:07:21.035Z,7.83
2019-04-14T10:09:25.072Z,8.33
2019-04-14T10:11:29.079Z,7.20
2019-04-14T10:13:33.069Z,6.67
2019-04-14T10:15:36.951Z,8.93
2019-04-14T10:17:40.852Z,6.33
2019-04-14T10:19:44.764Z,6.83
2019-04-14T10:21:48.653Z,6.40
2019-04-14T10:23:52.582Z,5.27
2019-04-14T10:25:56.467Z,5.30
2019-04-14T10:28:00.341Z,6.30
2019-04-14T10:30:06.784Z,5.40
2019-04-14T10:32:10.653Z,8.03
2019-04-14T10:34:14.570Z,7.63
2019-04-14T10:36:18.490Z,8.30
2019-04-14T10:38:22.368Z,9.20
2019-04-14T10:40:26.302Z,7.57
2019-04-14T10:42:30.195Z,8.50
2019-04-14T10:44:34.120Z,5.93
2019-04-14T10:46:38.012Z,7.53
2019-04-14T10:48:41.880Z,6.73
2019-04-14T10:50:46.264Z,5.70
2019-04-14T10:52:50.350Z,5.70
2019-04-14T10:54:54.300Z,5.33
2019-04-14T10:57:00.917Z,5.80
2019-04-14T10:59:03.688Z,7.83
2019-04-14T11:01:07.592Z,5.60
2019-04-14T11:03:11.469Z,8.70
2019-04-14T11:05:15.404Z,5.20
2019-04-14T11:07:20.872Z,5.57
2019-04-14T11:09:24.761Z,6.60
2019-04-14T11:11:28.641Z,7.87
2019-04-14T11:13:35.143Z,7.83
2019-04-14T11:15:39.794Z,8.03
2019-04-14T11:17:43.676Z,7.47
2019-04-14T11:19:47.630Z,7.10
2019-04-14T11:21:52.534Z,6.67
2019-04-14T11:23:56.471Z,6.80
2019-04-14T11:26:00.948Z,7.83
2019-04-14T11:28:04.942Z,8.07
2019-04-14T11:30:10.529Z,5.43
2019-04-14T11:32:28.449Z,6.50
2019-04-14T11:34:36.973Z,5.63
2019-04-14T11:36:45.798Z,7.77
2019-04-14T11:38:52.411Z,8.17
2019-04-14T11:40:57.899Z,8.07
2019-04-14T11:43:02.032Z,7.83
2019-04-14T11:45:08.673Z,6.37
2019-04-14T11:47:12.911Z,6.40
2019-04-14T11:49:16.877Z,6.83
2019-04-14T11:51:20.844Z,7.73
2019-04-14T11:53:24.737Z,6.47
2019-04-14T11:55:28.669Z,7.47
2019-04-14T11:57:33.473Z,6.37
2019-04-14T11:59:38.921Z,7.17
2019-04-14T12:01:44.528Z,5.60
2019-04-14T12:03:58.955Z,6.70
2019-04-14T12:06:13.460Z,7.30
2019-04-14T12:08:22.926Z,5.50
2019-04-14T12:10:28.326Z,6.03
2019-04-14T12:12:32.245Z,6.97
2019-04-14T12:14:36.141Z,6.23
2019-04-14T12:16:41.020Z,7.50
2019-04-14T12:18:44.950Z,5.70
2019-04-14T12:20:48.916Z,6.93
2019-04-14T12:22:52.820Z,5.73
2019-04-14T12:24:56.790Z,7.67
2019-04-14T12:27:00.888Z,7.40
2019-04-14T12:29:06.110Z,7.70
2019-04-14T12:31:10.872Z,7.27
2019-04-14T12:33:15.039Z,7.87
2019-04-14T12:35:19.388Z,7.20
2019-04-14T12:37:25.695Z,8.07
2019-04-14T12:39:29.755Z,6.40
2019-04-14T12:41:53.056Z,6.43
2019-04-14T12:43:58.498Z,6.27
2019-04-14T12:46:22.030Z,7.83
2019-04-14T12:48:30.236Z,6.80
2019-04-14T12:50:38.625Z,7.20
2019-04-14T12:52:42.578Z,9.00
2019-04-14T12:54:46.473Z,8.00
2019-04-14T12:56:50.410Z,8.60
2019-04-14T12:58:55.856Z,7.77
2019-04-14T13:01:01.321Z,8.23
2019-04-14T13:03:05.248Z,7.97
2019-04-14T13:05:09.320Z,6.93
2019-04-14T13:07:13.239Z,7.07
2019-04-14T13:09:17.190Z,7.13
2019-04-14T13:11:21.102Z,7.90
2019-04-14T13:13:25.008Z,6.60
2019-04-14T13:15:28.988Z,7.03
2019-04-14T13:17:32.882Z,7.27
2019-04-14T13:19:36.773Z,7.27
2019-04-14T13:21:40.694Z,8.03
2019-04-14T13:23:46.322Z,7.40
2019-04-14T13:25:50.916Z,7.67
2019-04-14T13:27:54.797Z,7.00
2019-04-14T13:29:58.683Z,8.13
2019-04-14T13:32:02.625Z,7.03
2019-04-14T13:34:06.524Z,5.50
2019-04-14T13:36:10.446Z,6.07
2019-04-14T13:38:14.347Z,6.57
2019-04-14T13:40:18.241Z,6.87
2019-04-14T13:42:22.489Z,6.10
2019-04-14T13:44:26.438Z,6.90
2019-04-14T13:46:30.485Z,6.30
2019-04-14T13:48:34.414Z,6.33
2019-04-14T13:50:38.316Z,6.77
2019-04-14T13:52:47.130Z,7.33
2019-04-14T13:54:47.795Z,6.97
2019-04-14T13:56:51.792Z,6.00
2019-04-14T13:58:55.720Z,7.20
2019-04-14T14:00:59.608Z,5.73
2019-04-14T14:03:03.474Z,6.57
2019-04-14T14:05:07.391Z,5.80
2019-04-14T14:07:11.302Z,7.27
2019-04-14T14:09:15.322Z,6.13
2019-04-14T14:11:23.253Z,5.67
2019-04-14T14:13:28.762Z,4.30
2019-04-14T14:15:37.263Z,7.17
2019-04-14T14:17:45.419Z,6.30
2019-04-14T14:20:07.609Z,5.40
2019-04-14T14:22:16.316Z,5.90
2019-04-14T14:24:24.801Z,6.63
2019-04-14T14:26:39.339Z,5.63
2019-04-14T14:28:43.242Z,6.57
2019-04-14T14:30:47.146Z,4.90
2019-04-14T14:32:51.076Z,6.87
2019-04-14T14:34:54.952Z,6.47
2019-04-14T14:36:58.897Z,5.60
2019-04-14T14:39:02.913Z,6.23
2019-04-14T14:41:08.609Z,5.90
2019-04-14T14:43:12.584Z,5.63
2019-04-14T14:45:18.051Z,4.97
2019-04-14T14:47:23.516Z,5.03
2019-04-14T14:49:29.015Z,4.57
2019-04-14T14:51:36.924Z,5.50
2019-04-14T14:53:40.823Z,5.20
2019-04-14T14:55:44.755Z,5.80
2019-04-14T14:57:48.644Z,5.70
2019-04-14T14:59:52.636Z,5.93
2019-04-14T15:01:56.517Z,6.20
2019-04-14T15:04:00.406Z,5.37
2019-04-14T15:06:04.950Z,5.13
2019-04-14T15:08:08.838Z,5.37
2019-04-14T15:10:12.788Z,6.00
2019-04-14T15:12:16.695Z,5.53
2019-04-14T15:14:20.573Z,6.10
2019-04-14T15:16:24.535Z,5.00
2019-04-14T15:18:28.405Z,5.27
2019-04-14T15:20:32.375Z,5.37
2019-04-14T15:22:36.255Z,5.77
2019-04-14T15:24:40.149Z,5.97
2019-04-14T15:26:44.068Z,5.80
2019-04-14T15:28:47.947Z,6.13
2019-04-14T15:30:51.839Z,4.57
2019-04-14T15:32:55.765Z,4.57
2019-04-14T15:34:59.674Z,5.40
2019-04-14T15:37:04.009Z,4.13
2019-04-14T15:39:09.755Z,5.67
2019-04-14T15:41:14.352Z,4.60
2019-04-14T15:43:18.308Z,5.17
2019-04-14T15:45:22.192Z,6.20
2019-04-14T15:47:26.135Z,6.30
2019-04-14T15:49:30.004Z,6.23
2019-04-14T15:51:33.967Z,6.63
2019-04-14T15:53:38.560Z,6.40
2019-04-14T15:55:42.573Z,6.63
2019-04-14T15:57:48.068Z,5.87
2019-04-14T15:59:56.592Z,6.50
2019-04-14T16:02:02.068Z,5.37
2019-04-14T16:04:07.569Z,6.53
2019-04-14T16:06:31.174Z,6.47
2019-04-14T16:08:45.550Z,6.30
2019-04-14T16:10:51.098Z,6.37
2019-04-14T16:13:08.661Z,6.03
2019-04-14T16:15:26.262Z,7.27
2019-04-14T16:17:43.535Z,5.77
2019-04-14T16:19:49.028Z,6.47
2019-04-14T16:21:52.929Z,6.33
2019-04-14T16:23:56.840Z,7.03
2019-04-14T16:26:02.370Z,6.20
2019-04-14T16:28:13.570Z,5.43
2019-04-14T16:30:22.163Z,5.50
2019-04-14T16:32:43.963Z,5.33
2019-04-14T16:34:49.416Z,5.93
2019-04-14T16:36:54.337Z,5.10
2019-04-14T16:38:58.259Z,6.33
2019-04-14T16:41:02.193Z,5.47
2019-04-14T16:43:06.150Z,5.07
2019-04-14T16:45:10.105Z,4.93
2019-04-14T16:47:14.031Z,6.33
2019-04-14T16:49:17.898Z,5.00
2019-04-14T16:51:23.405Z,5.20
2019-04-14T16:53:28.850Z,6.00
2019-04-14T16:55:46.342Z,5.27
2019-04-14T16:58:00.803Z,5.87
2019-04-14T17:00:06.224Z,5.87
2019-04-14T17:02:11.036Z,6.53
2019-04-14T17:04:15.566Z,4.70
2019-04-14T17:06:19.482Z,6.57
2019-04-14T17:08:23.409Z,4.43
2019-04-14T17:10:27.310Z,4.67
2019-04-14T17:12:31.281Z,6.17
2019-04-14T17:14:39.349Z,6.07
2019-04-14T17:16:53.589Z,5.07
2019-04-14T17:19:05.304Z,4.60
2019-04-14T17:21:19.331Z,5.70
2019-04-14T17:23:33.969Z,6.33
2019-04-14T17:25:39.400Z,6.00
2019-04-14T17:27:44.919Z,4.50
2019-04-14T17:29:59.526Z,6.30
2019-04-14T17:32:07.727Z,5.80
2019-04-14T17:34:25.110Z,6.13
2019-04-14T17:36:30.609Z,4.63
2019-04-14T17:38:41.986Z,6.50
2019-04-14T17:40:50.169Z,6.90
2019-04-14T17:43:13.799Z,4.67
2019-04-14T17:45:22.493Z,5.60
2019-04-14T17:47:30.732Z,6.27
2019-04-14T17:49:54.557Z,6.77
2019-04-14T17:52:00.026Z,6.93
2019-04-14T17:54:05.552Z,6.27
2019-04-14T17:56:27.511Z,6.27
2019-04-14T17:58:32.980Z,6.10
2019-04-14T18:00:38.784Z,5.60
2019-04-14T18:02:56.268Z,6.40
2019-04-14T18:05:01.746Z,6.53
2019-04-14T18:07:22.188Z,5.90
2019-04-14T18:09:30.639Z,6.10
2019-04-14T18:11:36.125Z,6.33
2019-04-14T18:13:50.793Z,6.93
2019-04-14T18:16:12.293Z,6.23
2019-04-14T18:18:17.781Z,6.63
2019-04-14T18:20:23.341Z,7.27
2019-04-14T18:22:27.257Z,7.13
2019-04-14T18:24:41.638Z,5.77
2019-04-14T18:26:36.690Z,6.70
2019-04-14T18:28:48.166Z,7.40
2019-04-14T18:30:53.632Z,7.57
2019-04-14T18:33:01.909Z,7.40
2019-04-14T18:35:08.016Z,7.60
2019-04-14T18:37:15.937Z,7.40
2019-04-14T18:39:33.630Z,7.50
2019-04-14T18:41:41.809Z,7.00
2019-04-14T18:43:53.304Z,7.10
2019-04-14T18:45:58.804Z,7.47
2019-04-14T18:48:16.262Z,7.40
2019-04-14T18:50:21.760Z,6.80
2019-04-14T18:52:36.581Z,7.40
2019-04-14T18:54:53.832Z,7.00
2019-04-14T18:57:01.142Z,8.17
2019-04-14T18:59:21.750Z,7.30
2019-04-14T19:01:27.254Z,8.73
2019-04-14T19:03:31.153Z,9.00
2019-04-14T19:05:35.093Z,8.87
2019-04-14T19:07:38.989Z,8.47
2019-04-14T19:09:42.904Z,8.20
2019-04-14T19:11:57.283Z,8.13
2019-04-14T19:14:05.518Z,8.20
2019-04-14T19:16:11.269Z,8.33
2019-04-14T19:18:32.343Z,9.43
2019-04-14T19:20:37.915Z,8.67
2019-04-14T19:22:42.166Z,8.90
2019-04-14T19:24:46.340Z,9.60
2019-04-14T19:26:50.449Z,9.47
2019-04-14T19:28:54.698Z,8.13
2019-04-14T19:30:58.912Z,9.90
2019-04-14T19:33:03.141Z,9.63
2019-04-14T19:35:07.076Z,10.53
2019-04-14T19:37:10.953Z,8.83
2019-04-14T19:39:14.827Z,9.27
2019-04-14T19:41:18.768Z,8.63
2019-04-14T19:43:23.879Z,9.73
2019-04-14T19:45:28.070Z,10.20
2019-04-14T19:47:31.993Z,9.57
2019-04-14T19:49:35.895Z,9.10
2019-04-14T19:51:39.822Z,9.73
2019-04-14T19:53:43.718Z,9.33
2019-04-14T19:55:48.068Z,10.03
2019-04-14T19:57:51.992Z,10.20
2019-04-14T19:59:55.891Z,8.67
2019-04-14T20:01:59.863Z,9.93
2019-04-14T20:04:03.725Z,9.50
2019-04-14T20:06:07.709Z,10.10
2019-04-14T20:08:11.647Z,10.07
2019-04-14T20:10:15.528Z,9.63
2019-04-14T20:12:19.457Z,10.43
2019-04-14T20:14:23.361Z,9.37
2019-04-14T20:16:40.897Z,10.30
2019-04-14T20:19:09.928Z,9.77
2019-04-14T20:21:08.177Z,9.47
2019-04-14T20:23:13.795Z,9.03
2019-04-14T20:25:19.332Z,10.20
2019-04-14T20:27:30.846Z,8.67
2019-04-14T20:29:39.289Z,9.87
2019-04-14T20:31:44.779Z,9.97
2019-04-14T20:33:48.752Z,8.73
2019-04-14T20:35:52.626Z,8.33
2019-04-14T20:37:57.116Z,10.30
2019-04-14T20:40:01.064Z,8.80
2019-04-14T20:42:06.456Z,9.67
2019-04-14T20:44:11.161Z,10.43
2019-04-14T20:46:15.065Z,9.50
2019-04-14T20:48:21.245Z,8.80
2019-04-14T20:50:25.516Z,11.10
2019-04-14T20:52:29.418Z,8.77
2019-04-14T20:54:33.344Z,9.77
2019-04-14T20:56:38.626Z,9.80
2019-04-14T20:58:42.613Z,9.63
2019-04-14T21:00:46.598Z,9.63
2019-04-14T21:03:08.204Z,10.30
2019-04-14T21:05:16.637Z,10.33
2019-04-14T21:07:23.171Z,9.70
2019-04-14T21:09:43.756Z,9.87
2019-04-14T21:11:58.380Z,9.00
2019-04-14T21:14:19.212Z,7.77
2019-04-14T21:16:30.929Z,9.60
2019-04-14T21:18:36.398Z,10.00
2019-04-14T21:20:44.954Z,9.77
2019-04-14T21:23:06.688Z,7.93
2019-04-14T21:25:12.129Z,9.50
2019-04-14T21:27:29.544Z,9.73
2019-04-14T21:29:37.887Z,9.83
2019-04-14T21:31:52.361Z,10.00
2019-04-14T21:34:07.095Z,8.97
2019-04-14T21:36:15.318Z,9.13
2019-04-14T21:38:23.498Z,8.27
2019-04-14T21:40:31.884Z,7.80
2019-04-14T21:42:35.753Z,8.60
2019-04-14T21:44:39.667Z,8.20
2019-04-14T21:46:43.571Z,8.40
2019-04-14T21:48:47.475Z,10.20
2019-04-14T21:50:51.384Z,9.97
2019-04-14T21:52:55.268Z,9.00
2019-04-14T21:55:01.712Z,7.47
2019-04-14T21:57:06.320Z,7.67
2019-04-14T21:59:11.791Z,10.00
2019-04-14T22:01:36.721Z,7.43
2019-04-14T22:04:00.334Z,7.87
2019-04-14T22:06:05.830Z,10.03
2019-04-14T22:08:14.375Z,10.03
2019-04-14T22:10:20.216Z,9.17
2019-04-14T22:12:24.102Z,9.73
2019-04-14T22:14:28.034Z,7.77
2019-04-14T22:16:31.913Z,8.67
2019-04-14T22:18:35.792Z,9.50
2019-04-14T22:20:39.741Z,9.67
2019-04-14T22:22:43.629Z,9.00
2019-04-14T22:24:47.539Z,7.90
2019-04-14T22:26:51.436Z,9.23
2019-04-14T22:28:55.377Z,9.80
2019-04-14T22:30:59.252Z,7.03
2019-04-14T22:33:03.740Z,8.73
2019-04-14T22:35:07.677Z,7.43
2019-04-14T22:37:11.562Z,9.27
2019-04-14T22:39:17.118Z,10.67
2019-04-14T22:41:22.019Z,6.90
2019-04-14T22:43:25.990Z,8.93
2019-04-14T22:45:29.917Z,10.03
2019-04-14T22:47:33.825Z,6.83
2019-04-14T22:49:37.773Z,6.20
2019-04-14T22:51:41.659Z,9.37
2019-04-14T22:53:45.544Z,9.30
2019-04-14T22:55:49.467Z,8.93
2019-04-14T22:57:53.345Z,7.10
2019-04-14T22:59:57.251Z,6.60
2019-04-14T23:02:08.799Z,9.07
2019-04-14T23:04:28.960Z,7.00
2019-04-14T23:06:34.454Z,8.90
2019-04-14T23:08:52.078Z,7.77
2019-04-14T23:11:00.237Z,8.47
2019-04-14T23:13:14.757Z,7.40
2019-04-14T23:15:28.708Z,9.03
2019-04-14T23:17:50.126Z,7.87
2019-04-14T23:19:55.625Z,8.47
2019-04-14T23:22:09.190Z,8.87
2019-04-14T23:24:17.678Z,7.30
2019-04-14T23:26:21.553Z,6.77
2019-04-14T23:28:25.497Z,5.83
2019-04-14T23:30:29.376Z,6.50
2019-04-14T23:32:33.304Z,6.70
2019-04-14T23:34:37.221Z,8.77
2019-04-14T23:36:41.133Z,6.50
2019-04-14T23:38:45.037Z,5.80
2019-04-14T23:40:48.907Z,7.80
2019-04-14T23:42:52.842Z,8.20
2019-04-14T23:44:56.732Z,8.50
2019-04-14T23:47:00.621Z,8.17
2019-04-14T23:49:04.757Z,8.20
2019-04-14T23:51:08.688Z,7.40
2019-04-14T23:53:12.572Z,8.10
2019-04-14T23:55:16.501Z,8.43
2019-04-14T23:57:20.377Z,8.13
2019-04-14T23:59:24.297Z,7.33
